Time;durP1;ratioP1;P1;durP2;ratioP2;P2;SDS_P1;SDS_P2;PMS_P1;PMS_P2;Temp;Humidity;BMP_temperature;BMP_pressure;BME280_temperature;BME280_humidity;BME280_pressure;Samples;Min_cycle;Max_cycle;Signal;HPM_P1;HPM_P2
2023/06/06 00:01:40;;;;;;;12.00;8.93;;;16.40;99.90;;;16.78;70.22;102077.66;5081012;28;20048;-67
2023/06/06 00:04:09;;;;;;;13.77;9.40;;;16.40;99.90;;;16.75;70.17;102075.88;5078175;28;20045;-67
2023/06/06 00:06:38;;;;;;;13.15;8.98;;;16.30;99.90;;;16.74;70.41;102082.09;5085109;28;20049;-67
2023/06/06 00:09:06;;;;;;;12.90;9.32;;;16.40;99.90;;;16.80;70.46;102081.19;5082787;28;20088;-67
2023/06/06 00:11:35;;;;;;;14.00;9.02;;;16.40;99.90;;;16.75;70.50;102078.56;5084169;28;20055;-67
2023/06/06 00:14:06;;;;;;;12.93;8.97;;;16.30;99.90;;;16.72;70.46;102085.72;5083947;28;20051;-67
2023/06/06 00:16:36;;;;;;;12.93;9.05;;;16.30;99.90;;;15.94;70.73;101948.47;5083151;28;20047;-67
2023/06/06 00:19:05;;;;;;;13.35;9.77;;;16.30;99.90;;;15.95;70.75;101947.59;5084744;28;20139;-67
2023/06/06 00:21:35;;;;;;;12.10;8.82;;;16.30;99.90;;;16.58;70.54;102074.28;5081672;28;20477;-67
2023/06/06 00:24:05;;;;;;;14.75;9.40;;;16.20;99.90;;;16.56;70.82;102066.28;5076998;28;20071;-67
2023/06/06 00:26:33;;;;;;;16.20;9.77;;;16.20;99.90;;;16.52;71.04;102077.00;5082709;28;20072;-67
2023/06/06 00:29:02;;;;;;;16.17;10.45;;;16.10;99.90;;;16.56;71.19;102078.75;5097704;28;20072;-67
2023/06/06 00:31:31;;;;;;;15.05;8.75;;;16.10;99.90;;;16.60;71.05;102065.34;5082720;28;20055;-67
2023/06/06 00:34:01;;;;;;;11.63;10.10;;;16.20;99.90;;;16.58;70.70;102068.94;5081079;28;20044;-67
2023/06/06 00:36:30;;;;;;;16.93;9.87;;;16.20;99.90;;;16.54;70.98;102072.53;5081874;28;20048;-67
2023/06/06 00:38:58;;;;;;;13.70;9.45;;;16.10;99.90;;;16.56;70.87;102073.41;5083528;28;20048;-67
2023/06/06 00:41:26;;;;;;;13.35;9.63;;;16.20;99.90;;;16.57;70.93;102073.38;5080957;28;20105;-67
2023/06/06 00:43:55;;;;;;;10.73;8.98;;;16.20;99.90;;;16.55;71.09;102075.19;5084086;28;20040;-67
2023/06/06 00:46:24;;;;;;;14.48;9.57;;;16.20;99.90;;;16.57;70.69;102072.53;5076433;28;20048;-67
2023/06/06 00:48:53;;;;;;;12.05;8.88;;;16.20;99.90;;;16.56;70.64;102071.63;5083545;28;20160;-67
2023/06/06 00:51:23;;;;;;;16.52;9.27;;;16.20;99.90;;;16.54;70.62;102069.88;5081344;28;20068;-67
2023/06/06 00:53:51;;;;;;;13.55;9.43;;;16.10;99.90;;;16.53;70.81;102071.63;5082650;28;20485;-67
2023/06/06 00:56:22;;;;;;;14.18;9.65;;;16.10;99.90;;;16.46;70.77;102069.91;5082175;28;20060;-66
2023/06/06 00:58:51;;;;;;;13.23;8.90;;;16.10;99.90;;;16.49;70.77;102069.91;5081608;28;20381;-67
2023/06/06 01:01:20;;;;;;;12.48;9.20;;;16.10;99.90;;;16.53;71.06;102068.97;5083112;28;20048;-66
2023/06/06 01:03:48;;;;;;;12.88;9.18;;;16.10;99.90;;;16.58;70.72;102060.91;5080558;28;20499;-66
2023/06/06 01:06:19;;;;;;;9.85;8.73;;;16.20;99.90;;;16.46;70.84;102069.00;5075982;28;20078;-67
2023/06/06 01:08:49;;;;;;;13.98;9.07;;;16.10;99.90;;;16.44;71.25;102066.34;5109089;27;20478;-66
2023/06/06 01:11:27;;;;;;;17.50;10.13;;;16.10;99.90;;;16.44;71.17;102073.47;5082287;28;20079;-66
2023/06/06 01:14:07;;;;;;;11.90;8.57;;;16.00;99.90;;;16.42;71.26;102068.16;5082811;28;20063;-66
2023/06/06 01:16:37;;;;;;;14.30;8.82;;;16.00;99.90;;;16.38;71.29;102057.50;5078230;28;20075;-66
2023/06/06 01:19:09;;;;;;;12.15;9.60;;;16.00;99.90;;;16.37;71.41;102070.00;5082398;28;20043;-66
2023/06/06 01:21:42;;;;;;;13.52;9.35;;;16.00;99.90;;;16.34;71.36;102062.00;5082164;28;20083;-66
2023/06/06 01:30:02;;;;;;;15.63;9.60;;;15.90;99.90;;;16.11;72.18;102047.97;4932702;29;20063;-65
2023/06/06 01:32:38;;;;;;;13.85;9.18;;;15.80;99.90;;;16.28;71.73;102065.59;4946037;29;20147;-64
2023/06/06 01:35:14;;;;;;;14.82;8.93;;;15.80;99.90;;;16.26;71.89;102061.16;4932946;29;20048;-63
2023/06/06 01:37:51;;;;;;;14.38;9.05;;;15.80;99.90;;;16.18;71.90;102047.88;4935322;29;20058;-63
2023/06/06 01:40:22;;;;;;;13.73;9.60;;;15.90;99.90;;;16.17;72.00;102054.16;4932013;29;20058;-65
2023/06/06 01:42:51;;;;;;;12.70;9.07;;;15.80;99.90;;;16.27;72.07;102061.19;4935465;29;20086;-64
2023/06/06 01:45:25;;;;;;;18.17;10.18;;;15.80;99.90;;;16.22;72.39;102059.41;4935232;29;20043;-64
2023/06/06 01:47:54;;;;;;;14.25;9.27;;;15.80;99.90;;;16.21;72.16;102053.22;4935244;29;20056;-64
2023/06/06 01:50:23;;;;;;;11.80;9.10;;;15.80;99.90;;;16.21;72.30;102055.88;4949623;29;20047;-63
2023/06/06 01:52:54;;;;;;;14.48;9.23;;;15.80;99.90;;;16.18;72.40;102058.56;4934966;29;20051;-64
2023/06/06 01:55:23;;;;;;;14.25;9.20;;;15.80;99.90;;;16.21;72.59;102053.22;4931777;29;20055;-64
2023/06/06 01:57:52;;;;;;;12.88;9.07;;;15.80;99.90;;;16.24;72.39;102058.53;4931398;29;20058;-64
2023/06/06 02:00:21;;;;;;;13.30;9.07;;;15.80;99.90;;;16.06;72.19;102026.66;4933664;29;20056;-63
2023/06/06 02:02:50;;;;;;;14.35;9.30;;;15.80;99.90;;;16.13;72.48;102059.50;4933744;29;20134;-64
2023/06/06 02:05:20;;;;;;;14.98;10.35;;;15.80;99.90;;;16.13;72.84;102060.41;4933631;29;20051;-63
2023/06/06 02:07:51;;;;;;;21.75;9.68;;;15.70;99.90;;;16.12;72.73;102057.75;4933859;29;20056;-63
2023/06/06 02:10:22;;;;;;;17.10;9.27;;;15.70;99.90;;;16.11;73.18;102054.19;4930671;29;20146;-64
2023/06/06 02:12:50;;;;;;;17.77;10.50;;;15.70;99.90;;;16.06;73.46;102049.78;4929988;29;20054;-64
2023/06/06 02:15:19;;;;;;;16.27;9.65;;;15.70;99.90;;;16.09;73.24;102057.75;4934886;29;20279;-64
2023/06/06 02:17:48;;;;;;;13.18;9.25;;;15.70;99.90;;;16.13;72.90;102065.75;4949523;29;20056;-63
2023/06/06 02:20:17;;;;;;;12.73;9.20;;;15.70;99.90;;;15.98;73.07;102038.28;4935557;29;20083;-63
2023/06/06 02:22:45;;;;;;;10.57;8.45;;;15.70;99.90;;;16.15;73.25;102057.72;4953074;29;20303;-63
2023/06/06 02:25:14;;;;;;;14.23;9.23;;;15.70;99.90;;;15.98;73.09;102063.19;4938477;29;20044;-64
2023/06/06 02:27:48;;;;;;;13.18;9.07;;;15.60;99.90;;;15.99;73.44;102064.97;4938103;29;20501;-64
2023/06/06 02:30:17;;;;;;;12.55;8.80;;;15.60;99.90;;;16.03;73.63;102060.47;4953271;29;20503;-63
2023/06/06 02:32:47;;;;;;;14.02;9.38;;;15.60;99.90;;;16.03;73.88;102058.69;4936966;29;20062;-64
2023/06/06 02:35:18;;;;;;;14.00;9.18;;;15.60;99.90;;;16.09;73.43;102058.66;4936842;29;20056;-63
2023/06/06 02:37:46;;;;;;;14.85;8.70;;;15.70;99.90;;;16.09;73.42;102055.09;4935313;29;20501;-63
2023/06/06 02:40:16;;;;;;;15.20;10.10;;;15.70;99.90;;;16.08;73.52;102056.91;4936814;29;20051;-63
2023/06/06 02:42:46;;;;;;;13.30;9.20;;;15.70;99.90;;;16.03;73.49;102064.03;4952864;29;20110;-65
2023/06/06 02:45:16;;;;;;;13.60;9.18;;;15.70;99.90;;;16.00;73.54;102060.50;4936746;29;20075;-63
2023/06/06 02:47:44;;;;;;;12.75;9.30;;;15.60;99.90;;;16.02;73.28;102061.38;4936740;29;20146;-63
2023/06/06 02:50:12;;;;;;;15.23;9.32;;;15.60;99.90;;;15.98;73.51;102052.53;4929815;29;20058;-63
2023/06/06 02:52:41;;;;;;;13.98;9.13;;;15.60;99.90;;;15.99;73.65;102066.72;4936618;29;20051;-64
2023/06/06 02:55:10;;;;;;;15.25;9.68;;;15.60;99.90;;;16.02;73.67;102056.03;4937703;29;20054;-64
2023/06/06 02:57:38;;;;;;;14.93;9.13;;;15.60;99.90;;;15.97;73.94;102057.84;4937913;29;20051;-63
2023/06/06 03:00:11;;;;;;;14.55;8.75;;;15.60;99.90;;;15.94;74.09;102065.88;4952655;29;20509;-64
2023/06/06 03:02:40;;;;;;;15.05;9.57;;;15.50;99.90;;;16.00;73.78;102063.19;4936500;29;20493;-63
2023/06/06 03:05:09;;;;;;;18.23;9.32;;;15.60;99.90;;;15.98;74.17;102065.88;4937516;29;20062;-63
2023/06/06 03:07:38;;;;;;;12.93;9.35;;;15.60;99.90;;;15.97;74.52;102065.84;4933147;29;20054;-64
2023/06/06 03:10:07;;;;;;;15.80;10.30;;;15.50;99.90;;;15.94;74.21;102065.88;4952320;29;20056;-63
2023/06/06 03:12:42;;;;;;;11.77;9.23;;;15.50;99.90;;;15.94;74.01;102065.88;4933920;29;20046;-63
2023/06/06 03:15:12;;;;;;;13.82;9.10;;;15.50;99.90;;;15.85;74.23;102063.28;4936283;29;20051;-64
2023/06/06 03:17:43;;;;;;;12.68;8.90;;;15.40;99.90;;;15.87;74.29;102073.03;4952185;29;20052;-63
2023/06/06 03:20:14;;;;;;;19.27;9.23;;;15.40;99.90;;;15.84;74.17;102072.19;4937376;29;20766;-63
2023/06/06 03:22:47;;;;;;;13.13;8.60;;;15.40;99.90;;;15.80;74.41;102068.66;4929809;29;20052;-63
2023/06/06 03:25:15;;;;;;;16.45;9.23;;;15.40;99.90;;;15.74;74.54;102066.03;4937357;29;20142;-63
2023/06/06 03:27:46;;;;;;;15.00;9.65;;;15.30;99.90;;;15.81;74.40;102073.13;4928288;29;20078;-63
2023/06/06 03:30:17;;;;;;;16.80;9.52;;;15.30;99.90;;;15.82;74.29;102074.88;4936098;29;20150;-63
2023/06/06 03:32:45;;;;;;;14.65;9.88;;;15.40;99.90;;;15.92;74.07;102075.69;4927359;29;20103;-63
2023/06/06 03:35:17;;;;;;;15.85;10.13;;;15.40;99.90;;;15.92;74.41;102070.34;4936319;29;20456;-64
2023/06/06 03:37:46;;;;;;;19.08;9.50;;;15.50;99.90;;;15.91;74.46;102068.59;4951931;29;20147;-63
2023/06/06 03:40:14;;;;;;;12.38;9.40;;;15.50;99.90;;;15.88;74.47;102079.28;4932145;29;20056;-65
2023/06/06 03:42:43;;;;;;;12.10;9.00;;;15.50;99.90;;;15.80;74.52;102067.75;4935606;29;20060;-63
2023/06/06 03:45:11;;;;;;;12.05;9.10;;;15.40;99.90;;;15.77;74.72;102068.69;4936804;29;20043;-63
2023/06/06 03:47:42;;;;;;;17.63;10.43;;;15.40;99.90;;;15.81;74.58;102074.88;4935914;29;20099;-63
2023/06/06 03:50:11;;;;;;;14.37;8.90;;;15.40;99.90;;;15.91;74.49;102074.78;4951734;29;20527;-63
2023/06/06 03:52:41;;;;;;;17.13;9.40;;;15.40;99.90;;;15.80;74.26;102065.97;4936839;29;20299;-63
2023/06/06 03:55:11;;;;;;;14.30;9.27;;;15.40;99.90;;;15.74;74.63;102068.69;4951451;29;20401;-62
2023/06/06 03:57:40;;;;;;;13.50;8.77;;;15.30;99.90;;;15.73;74.52;102066.03;4936609;29;20059;-63
2023/06/06 04:00:13;;;;;;;15.75;9.30;;;15.30;99.90;;;15.74;74.63;102065.13;4948120;29;20055;-62
2023/06/06 04:02:46;;;;;;;12.02;8.73;;;15.30;99.90;;;15.18;74.39;101953.44;4935602;29;20072;-63
2023/06/06 04:05:16;;;;;;;18.98;9.40;;;15.40;99.90;;;15.78;74.24;102064.22;4951346;29;20083;-63
2023/06/06 04:07:45;;;;;;;14.45;9.57;;;15.30;99.90;;;15.79;74.44;102068.66;4935161;29;20059;-62
2023/06/06 04:10:13;;;;;;;13.75;9.27;;;15.30;99.90;;;15.76;74.26;102066.00;4927572;29;20051;-62
2023/06/06 04:12:42;;;;;;;13.25;9.23;;;15.40;99.90;;;15.76;74.86;102068.66;4936722;29;20118;-63
2023/06/06 04:15:11;;;;;;;15.40;9.32;;;15.30;99.90;;;15.82;74.46;102073.97;4951229;29;20515;-63
2023/06/06 04:17:39;;;;;;;17.50;9.55;;;15.40;99.90;;;15.89;74.22;102068.59;4932926;29;20052;-63
2023/06/06 04:20:11;;;;;;;16.75;9.07;;;15.50;99.90;;;15.84;74.43;102064.19;4934991;29;20047;-63
2023/06/06 04:22:41;;;;;;;15.15;9.10;;;15.40;99.90;;;15.85;74.35;102064.16;4936185;29;20055;-63
2023/06/06 04:25:12;;;;;;;14.70;8.95;;;15.50;99.90;;;15.85;74.52;102063.28;4936436;29;20051;-63
2023/06/06 04:27:41;;;;;;;18.70;9.40;;;15.40;99.90;;;15.89;74.31;102071.25;4950894;29;20484;-62
2023/06/06 04:30:13;;;;;;;16.85;9.20;;;15.50;99.90;;;15.84;74.15;102057.06;4935247;29;20056;-62
2023/06/06 04:32:43;;;;;;;14.43;9.43;;;15.40;99.90;;;15.81;74.52;102066.88;4947304;29;20048;-63
2023/06/06 04:35:13;;;;;;;12.48;9.35;;;15.40;99.90;;;15.81;74.45;102064.22;4934738;29;20051;-63
2023/06/06 04:37:47;;;;;;;18.73;9.10;;;15.40;99.90;;;15.87;74.39;102077.53;4950947;29;20052;-63
2023/06/06 04:40:16;;;;;;;18.08;9.20;;;15.50;99.90;;;15.88;74.42;102066.81;4936179;29;20056;-63
2023/06/06 04:42:45;;;;;;;13.95;9.60;;;15.50;99.90;;;15.78;74.71;102064.22;4935832;29;20044;-62
2023/06/06 04:45:15;;;;;;;13.25;8.80;;;15.40;99.90;;;15.80;74.69;102070.44;4934434;29;20048;-62
2023/06/06 04:47:45;;;;;;;17.45;10.55;;;15.40;99.90;;;15.82;74.61;102074.88;4923262;29;20143;-63
2023/06/06 04:50:15;;;;;;;18.52;10.15;;;15.40;99.90;;;15.81;74.94;102064.22;4932482;29;20557;-63
2023/06/06 04:52:46;;;;;;;15.35;9.50;;;15.40;99.90;;;15.86;74.68;102073.94;4934480;29;20066;-64
2023/06/06 04:55:15;;;;;;;16.77;9.40;;;15.50;99.90;;;15.87;74.63;102069.50;4935724;29;20094;-63
2023/06/06 04:57:44;;;;;;;17.65;9.73;;;15.50;99.90;;;15.95;74.51;102070.34;4935730;29;20044;-63
2023/06/06 05:00:14;;;;;;;20.15;9.05;;;15.60;99.90;;;15.95;74.42;102071.22;4950219;29;20091;-63
2023/06/06 05:02:42;;;;;;;15.43;9.47;;;15.60;99.90;;;15.98;74.31;102062.31;4935573;29;20062;-63
2023/06/06 05:05:10;;;;;;;15.38;8.93;;;15.60;99.90;;;16.00;74.41;102064.06;4935518;29;20044;-62
2023/06/06 05:07:40;;;;;;;14.93;8.93;;;15.60;99.90;;;16.04;74.10;102070.28;4931848;29;20091;-64
2023/06/06 05:10:09;;;;;;;15.93;10.35;;;15.60;99.90;;;16.09;74.23;102063.09;4935428;29;20048;-62
2023/06/06 05:12:38;;;;;;;15.40;9.32;;;15.70;99.90;;;16.04;74.17;102086.28;4935307;29;20059;-63
2023/06/06 05:15:07;;;;;;;15.70;9.35;;;15.70;99.90;;;16.05;74.31;102072.91;4935562;29;20098;-62
2023/06/06 05:17:36;;;;;;;18.23;9.40;;;15.70;99.90;;;16.07;74.13;102071.13;4935405;29;20047;-62
2023/06/06 05:20:10;;;;;;;15.63;9.30;;;15.70;99.90;;;16.12;74.19;102065.75;4935304;29;20492;-62
2023/06/06 05:22:40;;;;;;;20.25;9.77;;;15.70;99.90;;;16.05;74.21;102072.91;4935392;29;20075;-63
2023/06/06 05:25:09;;;;;;;14.80;8.70;;;15.70;99.90;;;15.99;74.44;102056.06;4931583;29;20051;-65
2023/06/06 05:27:38;;;;;;;15.77;9.48;;;15.70;99.90;;;16.11;74.47;102066.63;4935316;29;20130;-63
2023/06/06 05:30:08;;;;;;;16.13;9.70;;;15.80;99.90;;;16.12;74.37;102073.78;4935479;29;20106;-62
2023/06/06 05:32:36;;;;;;;20.88;10.00;;;15.70;99.90;;;15.95;75.11;102070.34;4935356;29;20155;-62
2023/06/06 05:35:06;;;;;;;17.58;10.35;;;15.60;99.90;;;15.73;75.70;102074.03;4935099;29;20134;-63
2023/06/06 05:37:34;;;;;;;19.03;10.67;;;15.50;99.90;;;15.71;75.67;102035.81;4935250;29;20075;-63
2023/06/06 05:40:05;;;;;;;15.98;9.93;;;15.50;99.90;;;15.81;75.90;102065.09;4935412;29;20465;-62
2023/06/06 05:42:34;;;;;;;18.30;10.23;;;15.50;99.90;;;15.69;75.99;102045.59;4935039;29;20044;-62
2023/06/06 05:45:03;;;;;;;17.48;10.55;;;15.50;99.90;;;15.75;76.09;102070.47;4931402;29;20075;-63
2023/06/06 05:47:31;;;;;;;19.95;10.25;;;15.50;99.90;;;15.72;76.58;102066.91;4931626;29;20071;-63
2023/06/06 05:49:59;;;;;;;16.23;10.73;;;15.40;99.90;;;15.81;76.43;102078.44;4934988;29;20492;-62
2023/06/06 05:52:28;;;;;;;17.90;10.57;;;15.50;99.90;;;15.86;76.55;102076.63;4935138;29;20043;-62
2023/06/06 05:55:05;;;;;;;20.05;11.75;;;15.50;99.90;;;15.80;76.84;102073.09;4935142;29;20432;-62
2023/06/06 05:57:33;;;;;;;17.95;11.68;;;15.50;99.90;;;15.83;76.47;102075.75;4938905;29;20107;-63
2023/06/06 06:00:07;;;;;;;18.73;10.48;;;15.60;99.90;;;15.71;76.68;102067.81;4938690;29;20086;-62
2023/06/06 06:02:41;;;;;;;19.50;11.23;;;15.50;99.90;;;15.84;76.85;102081.09;4936299;29;20696;-62
2023/06/06 06:05:10;;;;;;;17.63;11.18;;;15.50;99.90;;;15.84;76.75;102078.41;4938701;29;20512;-62
2023/06/06 06:07:40;;;;;;;18.73;11.15;;;15.50;99.90;;;15.82;76.62;102073.97;4938666;29;20449;-62
2023/06/06 06:10:11;;;;;;;22.73;11.02;;;15.50;99.90;;;15.91;76.68;102073.94;4938634;29;20489;-62
2023/06/06 06:12:40;;;;;;;20.30;11.50;;;15.50;99.90;;;16.03;76.30;102076.47;4938927;29;20048;-62
2023/06/06 06:15:10;;;;;;;20.92;11.55;;;15.70;99.90;;;15.98;76.74;102075.66;4938532;29;20054;-63
2023/06/06 06:17:38;;;;;;;16.35;9.85;;;15.70;99.90;;;16.20;76.79;102077.28;4935305;29;20055;-63
2023/06/06 06:20:10;;;;;;;18.33;10.40;;;15.80;99.90;;;16.24;76.50;102054.94;4938601;29;20058;-62
2023/06/06 06:22:39;;;;;;;20.73;10.65;;;16.00;99.90;;;16.47;76.22;102082.38;4938462;29;20054;-62
2023/06/06 06:25:12;;;;;;;19.00;10.43;;;16.10;99.90;;;16.52;75.46;102077.00;4938411;29;20071;-62
2023/06/06 06:27:42;;;;;;;18.23;10.55;;;16.20;99.90;;;16.70;75.27;102076.84;4938061;29;20505;-63
2023/06/06 06:30:12;;;;;;;18.17;10.93;;;16.30;99.90;;;16.79;74.80;102082.06;4938313;29;20048;-63
2023/06/06 06:32:43;;;;;;;19.95;11.05;;;16.40;99.90;;;16.85;73.69;102074.88;4933859;29;20083;-63
2023/06/06 06:35:12;;;;;;;20.20;11.07;;;16.60;99.90;;;16.88;73.77;102085.53;4953025;29;20047;-63
2023/06/06 06:37:41;;;;;;;17.35;10.65;;;16.60;99.90;;;16.95;73.14;102075.66;4938139;29;20417;-63
2023/06/06 06:40:12;;;;;;;17.95;11.57;;;16.60;99.90;;;17.03;73.09;102074.66;4936776;29;20832;-62
2023/06/06 06:42:43;;;;;;;19.05;10.30;;;16.70;99.90;;;17.13;73.28;102078.09;4938238;29;20058;-62
2023/06/06 06:45:32;;;;;;;16.88;11.43;;;16.80;99.90;;;17.20;73.06;102076.25;4927775;29;20062;-63
2023/06/06 06:48:02;;;;;;;18.73;11.02;;;16.90;99.90;;;17.30;72.61;102083.28;4937910;29;20058;-64
2023/06/06 06:50:30;;;;;;;18.90;10.00;;;17.00;99.90;;;17.34;72.48;102077.88;4937967;29;20122;-62
2023/06/06 06:53:02;;;;;;;18.48;10.13;;;17.10;99.90;;;17.50;72.70;102075.91;4937729;29;20044;-63
2023/06/06 06:55:34;;;;;;;15.57;10.18;;;17.20;99.90;;;17.70;71.79;102079.19;4934730;29;20048;-62
2023/06/06 06:58:03;;;;;;;17.63;10.02;;;17.30;99.90;;;17.85;71.61;102079.84;4937622;29;20446;-63
2023/06/06 07:00:31;;;;;;;21.92;10.77;;;17.50;99.90;;;18.00;71.16;102084.97;4937637;29;20044;-63
2023/06/06 07:02:59;;;;;;;17.55;10.93;;;17.60;99.90;;;18.03;70.34;102084.94;4937690;29;20048;-62
2023/06/06 07:05:28;;;;;;;15.65;9.82;;;17.70;99.90;;;18.23;70.34;102087.28;4937484;29;20122;-63
2023/06/06 07:07:56;;;;;;;14.75;10.30;;;17.90;99.90;;;18.28;70.06;102077.38;4936539;29;20059;-63
2023/06/06 07:10:28;;;;;;;15.13;10.50;;;18.00;99.90;;;18.49;68.94;102084.19;4937569;29;20050;-62
2023/06/06 07:12:58;;;;;;;15.93;9.75;;;18.20;99.90;;;18.40;68.70;102052.16;4933958;29;20406;-64
2023/06/06 07:15:29;;;;;;;19.20;10.40;;;18.20;99.90;;;18.50;68.34;102092.22;4952173;29;20059;-63
2023/06/06 07:17:58;;;;;;;15.98;10.32;;;18.20;99.90;;;18.75;68.41;102090.88;4937323;29;20047;-63
2023/06/06 07:20:26;;;;;;;18.63;10.27;;;18.40;99.90;;;18.40;68.21;102001.25;4937581;29;20445;-62
2023/06/06 07:22:56;;;;;;;15.38;10.57;;;18.50;99.90;;;18.96;67.68;102081.53;4952151;29;20079;-63
2023/06/06 07:25:25;;;;;;;18.60;11.18;;;18.60;99.90;;;18.84;66.80;102074.59;4937184;29;20393;-64
2023/06/06 07:27:54;;;;;;;18.15;10.23;;;18.60;99.90;;;19.13;66.48;102083.88;4937039;29;20048;-63
2023/06/06 07:30:24;;;;;;;15.52;10.50;;;18.70;99.90;;;19.14;66.29;102091.00;4936732;29;20470;-62
2023/06/06 07:32:53;;;;;;;17.77;10.55;;;18.80;99.90;;;19.17;66.53;102085.56;4933752;29;20462;-63
2023/06/06 07:35:21;;;;;;;16.27;10.40;;;18.80;99.90;;;19.28;66.29;102076.38;4937034;29;20463;-64
2023/06/06 07:37:50;;;;;;;21.00;10.18;;;18.90;99.90;;;19.38;66.31;102074.41;4951910;29;20111;-65
2023/06/06 07:40:18;;;;;;;18.65;10.82;;;19.00;99.90;;;19.47;65.78;102076.94;4937285;29;20135;-63
2023/06/06 07:42:47;;;;;;;19.20;9.45;;;19.10;99.90;;;19.56;65.23;102074.94;4937101;29;20401;-64
2023/06/06 07:45:16;;;;;;;16.25;9.88;;;19.30;99.90;;;19.69;64.88;102076.41;4935529;29;20512;-63
2023/06/06 07:47:46;;;;;;;18.33;11.15;;;19.40;99.90;;;19.78;64.41;102086.06;4937030;29;20079;-63
2023/06/06 07:50:14;;;;;;;15.23;9.48;;;19.40;99.90;;;19.97;64.78;102083.84;4936872;29;20048;-63
2023/06/06 07:52:46;;;;;;;17.45;10.52;;;19.60;99.90;;;20.02;64.48;102088.16;4933063;29;20075;-63
2023/06/06 07:55:16;;;;;;;17.15;10.20;;;19.70;99.90;;;19.98;63.79;102056.94;4945174;29;20524;-65
2023/06/06 07:57:46;;;;;;;16.02;9.73;;;19.80;99.90;;;20.26;63.17;102076.88;4936834;29;20071;-64
2023/06/06 08:00:16;;;;;;;16.38;10.05;;;20.00;99.90;;;20.38;63.36;102081.06;4936801;29;20047;-64
2023/06/06 08:02:46;;;;;;;16.75;10.68;;;20.10;99.90;;;20.43;62.66;102076.44;4936635;29;20048;-64
2023/06/06 08:05:16;;;;;;;16.02;9.95;;;20.10;99.90;;;20.56;61.86;102073.38;4936546;29;20047;-64
2023/06/06 08:07:45;;;;;;;14.70;9.45;;;20.20;99.90;;;20.59;61.73;102078.72;4951267;29;20051;-66
2023/06/06 08:10:14;;;;;;;16.05;9.27;;;20.30;99.90;;;20.76;61.38;102074.66;4936448;29;20040;-64
2023/06/06 08:12:42;;;;;;;14.02;9.73;;;20.40;99.90;;;20.78;61.60;102084.47;4932872;29;20454;-63
2023/06/06 08:15:12;;;;;;;16.58;10.20;;;20.40;99.90;;;20.81;61.27;102072.75;4936366;29;20102;-63
2023/06/06 08:17:40;;;;;;;17.37;10.77;;;20.40;99.90;;;20.86;61.53;102078.88;4936224;29;20047;-63
2023/06/06 08:20:12;;;;;;;14.30;10.05;;;20.50;99.90;;;20.90;60.72;102083.25;4936075;29;20060;-64
2023/06/06 08:22:49;;;;;;;16.02;10.10;;;20.60;99.90;;;21.00;60.86;102077.56;4936168;29;20083;-64
2023/06/06 08:25:18;;;;;;;15.35;9.60;;;20.70;99.90;;;21.15;59.71;102077.19;4936139;29;20044;-64
2023/06/06 08:27:46;;;;;;;16.33;10.13;;;20.90;99.90;;;21.23;60.34;102080.53;4932451;29;20062;-64
2023/06/06 08:30:15;;;;;;;17.75;10.43;;;21.00;99.90;;;21.11;59.86;102071.91;4936114;29;20055;-65
2023/06/06 08:32:44;;;;;;;16.15;10.57;;;20.90;99.90;;;20.98;60.07;102070.47;4934747;29;20052;-63
2023/06/06 08:35:13;;;;;;;16.85;10.02;;;20.80;99.90;;;21.05;60.42;102072.09;4935902;29;20051;-64
2023/06/06 08:37:42;;;;;;;17.58;10.50;;;20.70;99.90;;;21.22;60.94;102065.28;4927195;29;20493;-63
2023/06/06 08:40:12;;;;;;;14.20;9.95;;;20.90;99.90;;;21.33;60.77;102073.06;4935900;29;20075;-64
2023/06/06 08:42:45;;;;;;;14.32;9.32;;;21.00;99.90;;;21.51;60.48;102069.81;4936026;29;20634;-65
2023/06/06 08:45:14;;;;;;;15.95;9.60;;;21.20;99.90;;;21.65;59.79;102072.06;4932386;29;20106;-64
2023/06/06 08:47:45;;;;;;;17.00;10.55;;;21.30;99.90;;;21.77;59.16;102072.59;4935698;29;20055;-64
2023/06/06 08:50:15;;;;;;;15.35;9.80;;;21.40;99.90;;;21.48;59.20;102002.59;4935672;29;20150;-63
2023/06/06 08:52:44;;;;;;;17.73;11.00;;;21.60;99.90;;;21.80;58.90;102042.88;4935846;29;20050;-63
2023/06/06 08:55:13;;;;;;;14.35;9.82;;;21.60;99.90;;;22.00;57.93;102072.78;4942770;29;20079;-64
2023/06/06 08:57:44;;;;;;;15.70;10.68;;;21.60;99.90;;;22.08;57.90;102073.41;4935645;29;20052;-63
2023/06/06 09:00:21;;;;;;;14.93;9.73;;;21.70;99.90;;;22.18;58.42;102066.75;4931925;29;20127;-64
2023/06/06 09:02:50;;;;;;;15.27;9.93;;;21.90;99.90;;;22.29;58.52;102077.22;4934566;29;20428;-64
2023/06/06 09:05:21;;;;;;;20.30;11.43;;;22.00;99.90;;;21.83;57.44;101971.88;4935533;29;20061;-64
2023/06/06 09:07:52;;;;;;;14.20;10.57;;;22.20;99.90;;;22.48;56.99;102074.75;4935472;29;20094;-64
2023/06/06 09:10:21;;;;;;;17.35;10.65;;;22.20;99.90;;;22.29;57.14;102072.69;4935476;29;20044;-64
2023/06/06 09:12:50;;;;;;;16.38;10.15;;;22.10;99.90;;;22.38;57.76;102076.88;4935450;29;20055;-64
2023/06/06 09:15:18;;;;;;;13.43;9.48;;;22.10;99.90;;;22.58;57.71;102076.25;4922922;29;20465;-65
2023/06/06 09:17:49;;;;;;;18.30;10.70;;;22.20;99.90;;;22.77;57.49;102071.97;4935523;29;20123;-64
2023/06/06 09:20:18;;;;;;;15.63;10.38;;;22.50;99.90;;;22.79;56.75;102080.88;4935368;29;20044;-64
2023/06/06 09:22:50;;;;;;;17.33;9.88;;;22.50;99.90;;;22.81;56.97;102071.81;4935335;29;20491;-64
2023/06/06 09:25:20;;;;;;;14.00;9.68;;;22.50;99.90;;;22.89;56.08;102064.31;4935213;29;20111;-64
2023/06/06 09:27:52;;;;;;;15.05;10.10;;;22.60;99.90;;;23.10;56.40;102068.03;4935123;29;20382;-64
2023/06/06 09:30:23;;;;;;;14.38;9.73;;;22.70;99.90;;;23.19;56.21;102062.28;4934411;29;20052;-63
2023/06/06 09:32:58;;;;;;;11.68;8.60;;;22.90;99.90;;;23.38;55.93;102066.13;4931951;29;20070;-64
2023/06/06 09:35:31;;;;;;;17.00;10.90;;;23.00;99.90;;;23.43;54.70;102069.50;4935422;29;20071;-64
2023/06/06 09:38:07;;;;;;;14.93;9.85;;;23.10;99.90;;;23.38;54.35;102059.81;4935323;29;20139;-64
2023/06/06 09:40:45;;;;;;;15.25;9.95;;;23.10;99.90;;;23.36;54.19;102067.09;4932117;29;20051;-63
2023/06/06 09:43:16;;;;;;;19.00;10.10;;;23.10;99.90;;;23.39;54.75;102067.88;4933975;29;20052;-64
2023/06/06 09:45:52;;;;;;;17.45;9.43;;;23.10;99.90;;;23.46;55.05;102065.81;4934910;29;20048;-73
2023/06/06 09:48:22;;;;;;;15.85;10.63;;;23.10;99.90;;;23.56;54.37;102059.09;4934053;29;20507;-72
2023/06/06 09:50:51;;;;;;;18.35;10.93;;;23.20;99.90;;;23.26;53.56;102042.22;4935203;29;20067;-72
2023/06/06 09:53:24;;;;;;;16.85;10.20;;;23.10;99.90;;;23.52;54.71;102050.22;4934977;29;20499;-73
2023/06/06 09:55:55;;;;;;;18.45;10.02;;;23.30;99.90;;;23.20;54.65;101978.56;4935042;29;20055;-74
2023/06/06 09:58:27;;;;;;;47.90;12.27;;;23.40;99.90;;;23.72;54.06;102063.84;4941998;29;20047;-74
2023/06/06 10:00:58;;;;;;;45.05;13.57;;;23.50;99.90;;;23.78;54.32;102066.31;4949911;29;20087;-77
2023/06/06 10:03:30;;;;;;;18.80;9.50;;;23.50;99.90;;;24.05;54.83;102067.94;4931969;29;20048;-75
2023/06/06 10:05:59;;;;;;;18.85;10.35;;;23.70;99.90;;;24.08;52.96;102067.78;4934930;29;20131;-76
2023/06/06 10:08:31;;;;;;;18.98;11.85;;;23.80;99.90;;;23.86;52.41;102066.91;4935248;29;20047;-75
2023/06/06 10:11:00;;;;;;;22.80;10.52;;;23.70;99.90;;;23.92;53.16;102057.66;4934788;29;20052;-74
2023/06/06 10:13:29;;;;;;;18.90;10.07;;;23.70;99.90;;;23.67;53.98;102056.88;4934811;29;20051;-71
2023/06/06 10:15:59;;;;;;;19.65;9.60;;;23.40;99.90;;;23.87;54.51;102070.44;4934848;29;20106;-75
2023/06/06 10:18:30;;;;;;;17.75;9.95;;;23.60;99.90;;;24.06;53.95;102063.41;4934870;29;20048;-73
2023/06/06 10:20:59;;;;;;;15.75;10.57;;;23.70;99.90;;;24.06;53.18;102050.75;4934650;29;20062;-75